Big Sur, California
Current Conditions -  °F | °C
As of 3:54 AM on Monday 24 Nov 2014 (Local Time) from KMRY Reporting Station
Clear Clear  
Wind Chill: 45°   Ceiling: Unl
Heat Index: 48°   Visibility: 10mi
Dew Point: 38°   Wind: 7mph
Humidity: 68%   Direction: 80°E
Pressure: 30.29"   Gusts: NA
Location:  36.27°N, 121.81°W
Report Text: KMRY 241154Z AUTO 08006KT 10SM CLR 09/03 A3029 RMK AO2 SLP270 T00890033 10094 20067 58005
Loading
Personal Weather Stations






























Interactive Weather Map New forecast layout! Learn more

10-Day Weather Forecast

Advertisements
Track Severe Weather on mobile